createdAt,value
2023-02-19T00:11:11.848Z,8.70
2023-02-19T00:25:23.611Z,8.80
2023-02-19T00:58:00.052Z,8.80
2023-02-19T01:00:47.904Z,8.60
2023-02-19T01:09:27.149Z,7.60
2023-02-19T01:12:39.504Z,8.90
2023-02-19T01:32:55.101Z,8.80
2023-02-19T01:38:43.312Z,8.80
2023-02-19T01:41:40.313Z,8.80
2023-02-19T01:48:18.166Z,8.80
2023-02-19T01:51:04.550Z,8.70
2023-02-19T01:54:22.619Z,8.80
2023-02-19T02:13:27.134Z,8.80
2023-02-19T02:16:48.962Z,8.80
2023-02-19T02:24:16.407Z,8.80
2023-02-19T02:27:01.233Z,8.80
2023-02-19T02:33:28.921Z,9.00
2023-02-19T02:39:14.039Z,8.90
2023-02-19T02:45:44.373Z,9.00
2023-02-19T02:49:34.572Z,9.10
2023-02-19T02:55:23.707Z,9.00
2023-02-19T03:05:53.413Z,9.20
2023-02-19T03:09:00.336Z,9.20
2023-02-19T03:12:02.289Z,9.00
2023-02-19T03:22:32.881Z,9.30
2023-02-19T03:31:18.949Z,9.20
2023-02-19T03:37:47.814Z,9.30
2023-02-19T03:44:22.669Z,9.10
2023-02-19T03:47:25.571Z,9.20
2023-02-19T03:50:32.249Z,9.10
2023-02-19T03:53:19.993Z,9.20
2023-02-19T03:56:29.217Z,9.20
2023-02-19T03:59:44.704Z,9.50
2023-02-19T04:06:06.783Z,8.90
2023-02-19T04:12:29.134Z,8.90
2023-02-19T04:19:14.334Z,8.70
2023-02-19T04:21:58.901Z,8.60
2023-02-19T04:24:50.645Z,8.70
2023-02-19T04:27:30.796Z,8.90
2023-02-19T04:33:12.297Z,8.90
2023-02-19T04:47:28.519Z,8.80
2023-02-19T04:50:03.373Z,9.00
2023-02-19T04:58:33.284Z,8.80
2023-02-19T05:01:41.115Z,8.20
2023-02-19T05:04:38.681Z,9.10
2023-02-19T05:12:47.731Z,9.00
2023-02-19T05:18:03.990Z,9.10
2023-02-19T05:21:16.816Z,9.00
2023-02-19T05:24:16.450Z,9.00
2023-02-19T05:33:17.442Z,8.50
2023-02-19T05:35:54.264Z,8.90
2023-02-19T05:38:26.237Z,8.20
2023-02-19T05:40:53.256Z,7.60
2023-02-19T05:46:05.766Z,6.90
2023-02-19T05:48:38.156Z,6.70
2023-02-19T05:51:14.874Z,6.60
2023-02-19T05:53:42.997Z,6.50
2023-02-19T05:56:28.290Z,5.70
2023-02-19T05:59:04.349Z,7.10
2023-02-19T06:01:31.515Z,6.20
2023-02-19T06:03:58.984Z,6.10
2023-02-19T06:06:27.595Z,6.20
2023-02-19T06:12:33.606Z,6.00
2023-02-19T06:20:53.872Z,5.80
2023-02-19T06:23:20.930Z,5.70
2023-02-19T06:26:17.945Z,5.80
2023-02-19T06:28:46.280Z,5.80
2023-02-19T06:31:14.575Z,5.80
2023-02-19T06:33:44.643Z,5.80
2023-02-19T06:36:17.578Z,5.60
2023-02-19T06:38:49.948Z,5.60
2023-02-19T06:41:19.725Z,5.60
2023-02-19T06:43:56.027Z,5.70
2023-02-19T06:46:23.449Z,5.60
2023-02-19T06:48:50.643Z,7.40
2023-02-19T06:51:28.756Z,5.60
2023-02-19T06:53:58.544Z,5.50
2023-02-19T06:56:38.570Z,5.40
2023-02-19T06:59:19.125Z,5.20
2023-02-19T07:01:46.981Z,5.30
2023-02-19T07:04:14.112Z,5.50
2023-02-19T07:06:44.652Z,3.80
2023-02-19T07:09:12.091Z,6.20
2023-02-19T07:11:40.447Z,5.30
2023-02-19T07:14:09.206Z,5.30
2023-02-19T07:16:37.049Z,5.30
2023-02-19T07:19:07.488Z,5.20
2023-02-19T07:21:37.885Z,5.40
2023-02-19T07:24:05.751Z,5.20
2023-02-19T07:26:32.727Z,5.30
2023-02-19T07:28:59.852Z,5.60
2023-02-19T07:31:26.982Z,5.50
2023-02-19T07:33:57.578Z,5.80
2023-02-19T07:36:27.888Z,5.50
2023-02-19T07:38:58.316Z,5.40
2023-02-19T07:41:37.389Z,5.50
2023-02-19T07:44:04.603Z,5.40
2023-02-19T07:46:32.281Z,5.40
2023-02-19T07:49:02.744Z,5.00
2023-02-19T07:51:32.319Z,5.30
2023-02-19T07:53:59.416Z,5.20
2023-02-19T07:56:29.170Z,5.30
2023-02-19T07:58:56.392Z,5.20
2023-02-19T08:01:42.882Z,5.30
2023-02-19T08:04:10.727Z,5.30
2023-02-19T08:06:37.856Z,5.40
2023-02-19T08:09:09.015Z,5.40
2023-02-19T08:11:57.422Z,5.40
2023-02-19T08:14:36.552Z,5.50
2023-02-19T08:17:04.276Z,5.40
2023-02-19T08:19:36.035Z,5.30
2023-02-19T08:22:03.128Z,5.50
2023-02-19T08:24:36.142Z,5.60
2023-02-19T08:27:03.370Z,5.60
2023-02-19T08:29:47.779Z,5.70
2023-02-19T08:32:18.481Z,5.60
2023-02-19T08:34:54.543Z,5.60
2023-02-19T08:37:22.847Z,5.50
2023-02-19T08:39:52.007Z,5.40
2023-02-19T08:42:19.080Z,5.20
2023-02-19T08:44:52.554Z,5.30
2023-02-19T08:47:19.697Z,5.30
2023-02-19T08:49:56.711Z,5.40
2023-02-19T08:52:23.815Z,5.50
2023-02-19T08:54:50.913Z,5.60
2023-02-19T08:57:19.284Z,5.80
2023-02-19T08:59:49.441Z,6.00
2023-02-19T09:02:17.737Z,6.10
2023-02-19T09:05:56.164Z,6.20
2023-02-19T09:11:16.312Z,6.40
2023-02-19T09:14:00.120Z,6.50
2023-02-19T09:16:39.279Z,6.80
2023-02-19T09:19:13.987Z,6.70
2023-02-19T09:26:04.461Z,7.00
2023-02-19T09:30:35.657Z,7.10
2023-02-19T09:33:10.474Z,7.30
2023-02-19T09:41:44.288Z,7.80
2023-02-19T09:47:34.493Z,8.20
2023-02-19T09:50:15.339Z,8.50
2023-02-19T09:53:11.385Z,8.50
2023-02-19T09:55:44.562Z,8.50
2023-02-19T09:58:56.625Z,8.40
2023-02-19T10:08:11.073Z,8.20
2023-02-19T10:14:17.979Z,7.20
2023-02-19T10:17:06.390Z,7.60
2023-02-19T10:19:40.100Z,8.20
2023-02-19T10:22:31.057Z,8.50
2023-02-19T10:25:12.696Z,8.20
2023-02-19T10:28:12.427Z,8.20
2023-02-19T10:30:57.222Z,8.50
2023-02-19T10:33:25.514Z,8.50
2023-02-19T10:40:20.423Z,10.20
2023-02-19T10:43:31.698Z,12.80
2023-02-19T10:49:30.217Z,15.50
2023-02-19T10:52:23.052Z,15.30
2023-02-19T10:55:51.032Z,16.40
2023-02-19T10:59:09.538Z,16.80
2023-02-19T11:02:21.279Z,16.30
2023-02-19T11:05:18.713Z,14.50
2023-02-19T11:11:11.504Z,11.50
2023-02-19T11:13:45.937Z,10.50
2023-02-19T11:16:31.032Z,10.00
2023-02-19T11:19:43.865Z,12.10
2023-02-19T11:25:13.475Z,10.60
2023-02-19T11:28:41.388Z,12.10
2023-02-19T11:31:40.913Z,15.00
2023-02-19T11:34:41.214Z,14.70
2023-02-19T11:55:06.094Z,11.30
2023-02-19T12:02:09.987Z,13.00
2023-02-19T12:11:46.686Z,17.90
2023-02-19T12:29:25.305Z,14.80
2023-02-19T12:33:40.353Z,14.70
2023-02-19T12:39:53.251Z,15.20
2023-02-19T13:16:22.473Z,9.90
2023-02-19T13:27:45.011Z,13.30
2023-02-19T13:35:12.680Z,13.60
2023-02-19T13:37:53.770Z,12.70
2023-02-19T14:21:26.835Z,11.60
2023-02-19T14:30:07.145Z,9.80
2023-02-19T14:38:07.434Z,12.10
2023-02-19T15:05:52.998Z,9.40
2023-02-19T15:50:44.891Z,9.90
2023-02-19T15:57:31.986Z,6.80
